sensor_id;sensor_type;location;lat;lon;timestamp;temperature;humidity
45785;DHT22;31489;51.404;5.474;2022-11-27T00:01:52;10.90;68.60
45785;DHT22;31489;51.404;5.474;2022-11-27T00:04:17;10.90;68.60
45785;DHT22;31489;51.404;5.474;2022-11-27T00:06:43;10.90;68.50
45785;DHT22;31489;51.404;5.474;2022-11-27T00:09:14;10.80;68.40
45785;DHT22;31489;51.404;5.474;2022-11-27T00:11:41;10.80;68.40
45785;DHT22;31489;51.404;5.474;2022-11-27T00:14:09;10.80;68.40
45785;DHT22;31489;51.404;5.474;2022-11-27T00:16:35;10.80;68.40
45785;DHT22;31489;51.404;5.474;2022-11-27T00:19:01;10.80;68.30
45785;DHT22;31489;51.404;5.474;2022-11-27T00:21:29;10.70;68.20
45785;DHT22;31489;51.404;5.474;2022-11-27T00:23:56;10.70;68.10
45785;DHT22;31489;51.404;5.474;2022-11-27T00:26:23;10.70;68.20
45785;DHT22;31489;51.404;5.474;2022-11-27T00:28:49;10.60;68.20
45785;DHT22;31489;51.404;5.474;2022-11-27T00:31:18;10.60;68.20
45785;DHT22;31489;51.404;5.474;2022-11-27T00:33:44;10.60;68.30
45785;DHT22;31489;51.404;5.474;2022-11-27T00:36:11;10.60;68.30
45785;DHT22;31489;51.404;5.474;2022-11-27T00:38:37;10.60;68.30
45785;DHT22;31489;51.404;5.474;2022-11-27T00:41:19;10.50;68.40
45785;DHT22;31489;51.404;5.474;2022-11-27T00:43:45;10.50;68.40
45785;DHT22;31489;51.404;5.474;2022-11-27T00:46:13;10.50;68.40
45785;DHT22;31489;51.404;5.474;2022-11-27T00:48:38;10.50;68.30
45785;DHT22;31489;51.404;5.474;2022-11-27T00:51:11;10.50;68.30
45785;DHT22;31489;51.404;5.474;2022-11-27T00:53:37;10.50;68.40
45785;DHT22;31489;51.404;5.474;2022-11-27T00:56:03;10.40;68.20
45785;DHT22;31489;51.404;5.474;2022-11-27T00:58:29;10.40;68.30
45785;DHT22;31489;51.404;5.474;2022-11-27T01:00:57;10.30;68.30
45785;DHT22;31489;51.404;5.474;2022-11-27T01:03:23;10.30;68.40
45785;DHT22;31489;51.404;5.474;2022-11-27T01:05:49;10.30;68.40
45785;DHT22;31489;51.404;5.474;2022-11-27T01:08:15;10.30;68.50
45785;DHT22;31489;51.404;5.474;2022-11-27T01:10:52;10.30;68.50
45785;DHT22;31489;51.404;5.474;2022-11-27T01:13:18;10.20;68.50
45785;DHT22;31489;51.404;5.474;2022-11-27T01:15:45;10.20;68.40
45785;DHT22;31489;51.404;5.474;2022-11-27T01:18:11;10.20;68.50
45785;DHT22;31489;51.404;5.474;2022-11-27T01:20:38;10.10;68.40
45785;DHT22;31489;51.404;5.474;2022-11-27T01:23:05;10.10;68.50
45785;DHT22;31489;51.404;5.474;2022-11-27T01:25:30;10.10;68.60
45785;DHT22;31489;51.404;5.474;2022-11-27T01:27:56;10.10;68.60
45785;DHT22;31489;51.404;5.474;2022-11-27T01:30:22;10.00;68.70
45785;DHT22;31489;51.404;5.474;2022-11-27T01:32:47;10.00;68.70
45785;DHT22;31489;51.404;5.474;2022-11-27T01:35:13;10.00;68.80
45785;DHT22;31489;51.404;5.474;2022-11-27T01:37:39;10.00;68.90
45785;DHT22;31489;51.404;5.474;2022-11-27T01:40:05;9.90;68.80
45785;DHT22;31489;51.404;5.474;2022-11-27T01:42:31;9.90;68.90
45785;DHT22;31489;51.404;5.474;2022-11-27T01:44:57;9.90;68.90
45785;DHT22;31489;51.404;5.474;2022-11-27T01:47:37;9.90;69.00
45785;DHT22;31489;51.404;5.474;2022-11-27T01:50:15;9.90;69.00
45785;DHT22;31489;51.404;5.474;2022-11-27T01:52:47;9.90;69.10
45785;DHT22;31489;51.404;5.474;2022-11-27T01:55:24;9.90;69.10
45785;DHT22;31489;51.404;5.474;2022-11-27T01:57:56;9.90;69.20
45785;DHT22;31489;51.404;5.474;2022-11-27T02:00:24;9.80;69.10
45785;DHT22;31489;51.404;5.474;2022-11-27T02:02:49;9.90;69.20
45785;DHT22;31489;51.404;5.474;2022-11-27T02:05:19;9.90;69.20
45785;DHT22;31489;51.404;5.474;2022-11-27T02:07:46;9.80;69.10
45785;DHT22;31489;51.404;5.474;2022-11-27T02:10:13;9.90;69.20
45785;DHT22;31489;51.404;5.474;2022-11-27T02:15:15;9.80;69.00
45785;DHT22;31489;51.404;5.474;2022-11-27T02:18:00;9.80;69.00
45785;DHT22;31489;51.404;5.474;2022-11-27T02:20:43;9.80;69.00
45785;DHT22;31489;51.404;5.474;2022-11-27T02:23:40;9.80;69.00
45785;DHT22;31489;51.404;5.474;2022-11-27T02:29:08;9.70;69.00
45785;DHT22;31489;51.404;5.474;2022-11-27T02:31:57;9.70;69.00
45785;DHT22;31489;51.404;5.474;2022-11-27T02:34:42;9.70;69.00
45785;DHT22;31489;51.404;5.474;2022-11-27T02:40:37;9.70;69.10
45785;DHT22;31489;51.404;5.474;2022-11-27T02:43:15;9.70;69.30
45785;DHT22;31489;51.404;5.474;2022-11-27T02:45:46;9.70;69.20
45785;DHT22;31489;51.404;5.474;2022-11-27T02:48:15;9.60;69.00
45785;DHT22;31489;51.404;5.474;2022-11-27T02:50:43;9.70;69.00
45785;DHT22;31489;51.404;5.474;2022-11-27T02:53:34;9.70;69.00
45785;DHT22;31489;51.404;5.474;2022-11-27T02:55:59;9.70;68.90
45785;DHT22;31489;51.404;5.474;2022-11-27T02:58:28;9.70;69.00
45785;DHT22;31489;51.404;5.474;2022-11-27T03:00:55;9.70;68.90
45785;DHT22;31489;51.404;5.474;2022-11-27T03:03:25;9.70;68.90
45785;DHT22;31489;51.404;5.474;2022-11-27T03:05:55;9.70;69.00
45785;DHT22;31489;51.404;5.474;2022-11-27T03:08:40;9.70;68.90
45785;DHT22;31489;51.404;5.474;2022-11-27T03:11:10;9.70;68.90
45785;DHT22;31489;51.404;5.474;2022-11-27T03:13:48;9.70;69.00
45785;DHT22;31489;51.404;5.474;2022-11-27T03:21:59;9.80;68.90
45785;DHT22;31489;51.404;5.474;2022-11-27T03:24:27;9.80;68.80
45785;DHT22;31489;51.404;5.474;2022-11-27T03:26:53;9.80;68.70
45785;DHT22;31489;51.404;5.474;2022-11-27T03:29:35;9.80;68.70
45785;DHT22;31489;51.404;5.474;2022-11-27T03:32:02;9.80;68.60
45785;DHT22;31489;51.404;5.474;2022-11-27T03:34:28;9.80;68.60
45785;DHT22;31489;51.404;5.474;2022-11-27T03:36:55;9.80;68.60
45785;DHT22;31489;51.404;5.474;2022-11-27T03:39:21;9.80;68.50
45785;DHT22;31489;51.404;5.474;2022-11-27T03:47:08;9.90;68.40
45785;DHT22;31489;51.404;5.474;2022-11-27T03:49:49;9.90;68.40
45785;DHT22;31489;51.404;5.474;2022-11-27T03:52:30;9.90;68.40
45785;DHT22;31489;51.404;5.474;2022-11-27T04:00:34;9.90;68.40
45785;DHT22;31489;51.404;5.474;2022-11-27T04:03:02;9.90;68.30
45785;DHT22;31489;51.404;5.474;2022-11-27T04:05:28;9.90;68.20
45785;DHT22;31489;51.404;5.474;2022-11-27T04:07:54;9.90;68.20
45785;DHT22;31489;51.404;5.474;2022-11-27T04:10:19;9.90;68.10
45785;DHT22;31489;51.404;5.474;2022-11-27T04:12:45;9.90;68.00
45785;DHT22;31489;51.404;5.474;2022-11-27T04:15:11;9.90;68.10
45785;DHT22;31489;51.404;5.474;2022-11-27T04:17:37;9.90;68.10
45785;DHT22;31489;51.404;5.474;2022-11-27T04:20:04;9.90;68.00
45785;DHT22;31489;51.404;5.474;2022-11-27T04:22:29;9.90;68.10
45785;DHT22;31489;51.404;5.474;2022-11-27T04:24:55;9.90;68.10
45785;DHT22;31489;51.404;5.474;2022-11-27T04:27:21;9.90;68.10
45785;DHT22;31489;51.404;5.474;2022-11-27T04:29:47;9.90;68.00
45785;DHT22;31489;51.404;5.474;2022-11-27T04:32:12;9.90;67.90
45785;DHT22;31489;51.404;5.474;2022-11-27T04:34:38;9.90;67.90
45785;DHT22;31489;51.404;5.474;2022-11-27T04:37:04;9.90;67.90
45785;DHT22;31489;51.404;5.474;2022-11-27T04:39:29;9.90;67.90
45785;DHT22;31489;51.404;5.474;2022-11-27T04:41:55;9.90;67.80
45785;DHT22;31489;51.404;5.474;2022-11-27T04:44:21;10.00;67.90
45785;DHT22;31489;51.404;5.474;2022-11-27T04:46:48;10.00;67.70
45785;DHT22;31489;51.404;5.474;2022-11-27T04:49:13;10.00;67.70
45785;DHT22;31489;51.404;5.474;2022-11-27T04:51:39;10.00;67.80
45785;DHT22;31489;51.404;5.474;2022-11-27T04:54:05;10.00;67.80
45785;DHT22;31489;51.404;5.474;2022-11-27T04:56:31;10.00;67.80
45785;DHT22;31489;51.404;5.474;2022-11-27T04:58:56;10.00;67.70
45785;DHT22;31489;51.404;5.474;2022-11-27T05:01:22;10.00;67.70
45785;DHT22;31489;51.404;5.474;2022-11-27T05:03:48;10.00;67.70
45785;DHT22;31489;51.404;5.474;2022-11-27T05:06:14;10.00;67.60
45785;DHT22;31489;51.404;5.474;2022-11-27T05:08:40;10.00;67.50
45785;DHT22;31489;51.404;5.474;2022-11-27T05:11:14;10.00;67.60
45785;DHT22;31489;51.404;5.474;2022-11-27T05:13:40;10.00;67.30
45785;DHT22;31489;51.404;5.474;2022-11-27T05:16:06;10.00;67.40
45785;DHT22;31489;51.404;5.474;2022-11-27T05:18:32;10.00;67.30
45785;DHT22;31489;51.404;5.474;2022-11-27T05:21:07;10.00;67.40
45785;DHT22;31489;51.404;5.474;2022-11-27T05:23:33;10.00;67.30
45785;DHT22;31489;51.404;5.474;2022-11-27T05:26:00;10.00;67.40
45785;DHT22;31489;51.404;5.474;2022-11-27T05:28:25;10.00;67.40
45785;DHT22;31489;51.404;5.474;2022-11-27T05:30:51;10.00;67.30
45785;DHT22;31489;51.404;5.474;2022-11-27T05:33:17;10.00;67.40
45785;DHT22;31489;51.404;5.474;2022-11-27T05:35:43;10.00;67.30
45785;DHT22;31489;51.404;5.474;2022-11-27T05:38:10;10.00;67.30
45785;DHT22;31489;51.404;5.474;2022-11-27T05:40:36;10.00;67.40
45785;DHT22;31489;51.404;5.474;2022-11-27T05:43:02;10.00;67.40
45785;DHT22;31489;51.404;5.474;2022-11-27T05:45:28;10.00;67.30
45785;DHT22;31489;51.404;5.474;2022-11-27T05:47:54;10.00;67.20
45785;DHT22;31489;51.404;5.474;2022-11-27T05:50:20;10.10;67.20
45785;DHT22;31489;51.404;5.474;2022-11-27T05:52:46;10.10;67.30
45785;DHT22;31489;51.404;5.474;2022-11-27T05:55:13;10.10;67.30
45785;DHT22;31489;51.404;5.474;2022-11-27T05:57:39;10.10;67.40
45785;DHT22;31489;51.404;5.474;2022-11-27T06:00:06;10.10;67.30
45785;DHT22;31489;51.404;5.474;2022-11-27T06:02:32;10.10;67.20
45785;DHT22;31489;51.404;5.474;2022-11-27T06:04:58;10.10;67.20
45785;DHT22;31489;51.404;5.474;2022-11-27T06:07:23;10.10;67.30
45785;DHT22;31489;51.404;5.474;2022-11-27T06:09:49;10.10;67.20
45785;DHT22;31489;51.404;5.474;2022-11-27T06:12:14;10.10;67.20
45785;DHT22;31489;51.404;5.474;2022-11-27T06:14:40;10.10;67.20
45785;DHT22;31489;51.404;5.474;2022-11-27T06:17:06;10.20;67.20
45785;DHT22;31489;51.404;5.474;2022-11-27T06:19:32;10.20;67.10
45785;DHT22;31489;51.404;5.474;2022-11-27T06:21:59;10.20;67.10
45785;DHT22;31489;51.404;5.474;2022-11-27T06:24:24;10.20;67.20
45785;DHT22;31489;51.404;5.474;2022-11-27T06:26:50;10.20;67.20
45785;DHT22;31489;51.404;5.474;2022-11-27T06:29:16;10.20;67.20
45785;DHT22;31489;51.404;5.474;2022-11-27T06:31:41;10.20;67.20
45785;DHT22;31489;51.404;5.474;2022-11-27T06:34:07;10.20;67.20
45785;DHT22;31489;51.404;5.474;2022-11-27T06:36:35;10.20;67.20
45785;DHT22;31489;51.404;5.474;2022-11-27T06:39:02;10.20;67.20
45785;DHT22;31489;51.404;5.474;2022-11-27T06:41:28;10.20;67.20
45785;DHT22;31489;51.404;5.474;2022-11-27T06:43:56;10.20;67.30
45785;DHT22;31489;51.404;5.474;2022-11-27T06:46:22;10.20;67.40
45785;DHT22;31489;51.404;5.474;2022-11-27T06:48:51;10.20;67.70
45785;DHT22;31489;51.404;5.474;2022-11-27T06:51:22;10.20;67.70
45785;DHT22;31489;51.404;5.474;2022-11-27T06:53:49;10.30;67.70
45785;DHT22;31489;51.404;5.474;2022-11-27T06:56:17;10.20;67.80
45785;DHT22;31489;51.404;5.474;2022-11-27T06:58:43;10.30;67.80
45785;DHT22;31489;51.404;5.474;2022-11-27T07:01:13;10.30;67.90
45785;DHT22;31489;51.404;5.474;2022-11-27T07:03:40;10.30;67.90
45785;DHT22;31489;51.404;5.474;2022-11-27T07:06:07;10.30;68.20
45785;DHT22;31489;51.404;5.474;2022-11-27T07:08:34;10.30;68.10
45785;DHT22;31489;51.404;5.474;2022-11-27T07:11:15;10.30;68.30
45785;DHT22;31489;51.404;5.474;2022-11-27T07:13:43;10.30;68.50
45785;DHT22;31489;51.404;5.474;2022-11-27T07:16:09;10.30;68.50
45785;DHT22;31489;51.404;5.474;2022-11-27T07:18:40;10.30;68.60
45785;DHT22;31489;51.404;5.474;2022-11-27T07:21:07;10.30;68.70
45785;DHT22;31489;51.404;5.474;2022-11-27T07:23:34;10.30;68.80
45785;DHT22;31489;51.404;5.474;2022-11-27T07:26:08;10.30;68.70
45785;DHT22;31489;51.404;5.474;2022-11-27T07:28:34;10.30;68.90
45785;DHT22;31489;51.404;5.474;2022-11-27T07:31:00;10.30;68.90
45785;DHT22;31489;51.404;5.474;2022-11-27T07:33:26;10.30;69.00
45785;DHT22;31489;51.404;5.474;2022-11-27T07:36:05;10.30;69.10
45785;DHT22;31489;51.404;5.474;2022-11-27T07:38:31;10.30;69.30
45785;DHT22;31489;51.404;5.474;2022-11-27T07:41:02;10.30;69.20
45785;DHT22;31489;51.404;5.474;2022-11-27T07:43:28;10.30;69.50
45785;DHT22;31489;51.404;5.474;2022-11-27T07:45:53;10.30;69.40
45785;DHT22;31489;51.404;5.474;2022-11-27T07:48:19;10.30;69.50
45785;DHT22;31489;51.404;5.474;2022-11-27T07:50:45;10.20;69.70
45785;DHT22;31489;51.404;5.474;2022-11-27T07:53:11;10.30;69.80
45785;DHT22;31489;51.404;5.474;2022-11-27T07:55:40;10.20;69.80
45785;DHT22;31489;51.404;5.474;2022-11-27T07:58:07;10.20;70.00
45785;DHT22;31489;51.404;5.474;2022-11-27T08:00:33;10.20;70.00
45785;DHT22;31489;51.404;5.474;2022-11-27T08:03:00;10.20;70.00
45785;DHT22;31489;51.404;5.474;2022-11-27T08:05:26;10.20;70.70
45785;DHT22;31489;51.404;5.474;2022-11-27T08:07:51;10.20;70.00
45785;DHT22;31489;51.404;5.474;2022-11-27T08:10:17;10.20;70.20
45785;DHT22;31489;51.404;5.474;2022-11-27T08:12:43;10.20;70.20
45785;DHT22;31489;51.404;5.474;2022-11-27T08:15:09;10.20;70.30
45785;DHT22;31489;51.404;5.474;2022-11-27T08:17:35;10.20;70.40
45785;DHT22;31489;51.404;5.474;2022-11-27T08:20:02;10.20;70.70
45785;DHT22;31489;51.404;5.474;2022-11-27T08:22:28;10.20;70.80
45785;DHT22;31489;51.404;5.474;2022-11-27T08:24:54;10.20;70.60
45785;DHT22;31489;51.404;5.474;2022-11-27T08:27:20;10.20;70.70
45785;DHT22;31489;51.404;5.474;2022-11-27T08:29:46;10.20;70.80
45785;DHT22;31489;51.404;5.474;2022-11-27T08:32:11;10.20;71.00
45785;DHT22;31489;51.404;5.474;2022-11-27T08:34:37;10.20;71.00
45785;DHT22;31489;51.404;5.474;2022-11-27T08:37:04;10.20;71.10
45785;DHT22;31489;51.404;5.474;2022-11-27T08:39:29;10.20;71.10
45785;DHT22;31489;51.404;5.474;2022-11-27T08:41:55;10.30;71.30
45785;DHT22;31489;51.404;5.474;2022-11-27T08:44:21;10.30;71.20
45785;DHT22;31489;51.404;5.474;2022-11-27T08:46:46;10.30;71.30
45785;DHT22;31489;51.404;5.474;2022-11-27T08:49:12;10.30;71.30
45785;DHT22;31489;51.404;5.474;2022-11-27T08:51:38;10.30;71.40
45785;DHT22;31489;51.404;5.474;2022-11-27T08:54:03;10.30;71.40
45785;DHT22;31489;51.404;5.474;2022-11-27T08:56:29;10.30;71.40
45785;DHT22;31489;51.404;5.474;2022-11-27T08:58:54;10.40;71.50
45785;DHT22;31489;51.404;5.474;2022-11-27T09:01:26;10.40;71.40
45785;DHT22;31489;51.404;5.474;2022-11-27T09:03:52;10.40;71.60
45785;DHT22;31489;51.404;5.474;2022-11-27T09:06:26;10.40;71.50
45785;DHT22;31489;51.404;5.474;2022-11-27T09:08:57;10.40;71.60
45785;DHT22;31489;51.404;5.474;2022-11-27T09:11:23;10.40;71.50
45785;DHT22;31489;51.404;5.474;2022-11-27T09:13:49;10.40;71.40
45785;DHT22;31489;51.404;5.474;2022-11-27T09:16:16;10.50;71.50
45785;DHT22;31489;51.404;5.474;2022-11-27T09:18:44;10.50;71.70
45785;DHT22;31489;51.404;5.474;2022-11-27T09:21:11;10.50;71.70
45785;DHT22;31489;51.404;5.474;2022-11-27T09:23:37;10.50;71.80
45785;DHT22;31489;51.404;5.474;2022-11-27T09:26:08;10.60;71.80
45785;DHT22;31489;51.404;5.474;2022-11-27T09:28:34;10.60;71.80
45785;DHT22;31489;51.404;5.474;2022-11-27T09:31:02;10.60;71.80
45785;DHT22;31489;51.404;5.474;2022-11-27T09:33:30;10.60;71.80
45785;DHT22;31489;51.404;5.474;2022-11-27T09:35:56;10.70;71.80
45785;DHT22;31489;51.404;5.474;2022-11-27T09:38:22;10.70;71.70
45785;DHT22;31489;51.404;5.474;2022-11-27T09:40:52;10.70;71.70
45785;DHT22;31489;51.404;5.474;2022-11-27T09:43:29;10.70;71.90
45785;DHT22;31489;51.404;5.474;2022-11-27T09:46:03;10.70;72.00
45785;DHT22;31489;51.404;5.474;2022-11-27T09:48:37;10.80;71.80
45785;DHT22;31489;51.404;5.474;2022-11-27T09:51:12;10.80;71.90
45785;DHT22;31489;51.404;5.474;2022-11-27T09:53:46;10.80;72.10
45785;DHT22;31489;51.404;5.474;2022-11-27T09:56:16;10.80;72.00
45785;DHT22;31489;51.404;5.474;2022-11-27T09:58:55;10.90;71.90
45785;DHT22;31489;51.404;5.474;2022-11-27T10:01:30;10.90;72.30
45785;DHT22;31489;51.404;5.474;2022-11-27T10:03:56;10.90;71.80
45785;DHT22;31489;51.404;5.474;2022-11-27T10:09:33;10.90;72.10
45785;DHT22;31489;51.404;5.474;2022-11-27T10:15:30;11.00;72.10
45785;DHT22;31489;51.404;5.474;2022-11-27T10:26:03;11.00;72.20
45785;DHT22;31489;51.404;5.474;2022-11-27T10:31:28;11.00;72.30
45785;DHT22;31489;51.404;5.474;2022-11-27T10:33:59;11.00;72.30
45785;DHT22;31489;51.404;5.474;2022-11-27T10:36:40;11.00;72.20
45785;DHT22;31489;51.404;5.474;2022-11-27T10:39:14;11.00;72.60
45785;DHT22;31489;51.404;5.474;2022-11-27T10:41:56;11.10;72.60
45785;DHT22;31489;51.404;5.474;2022-11-27T10:44:33;11.10;72.60
45785;DHT22;31489;51.404;5.474;2022-11-27T10:47:02;11.10;72.60
45785;DHT22;31489;51.404;5.474;2022-11-27T10:49:29;11.10;72.60
45785;DHT22;31489;51.404;5.474;2022-11-27T10:51:54;11.10;72.60
45785;DHT22;31489;51.404;5.474;2022-11-27T10:54:29;11.20;72.70
45785;DHT22;31489;51.404;5.474;2022-11-27T10:59:49;11.20;72.60
45785;DHT22;31489;51.404;5.474;2022-11-27T11:02:32;11.20;72.60
45785;DHT22;31489;51.404;5.474;2022-11-27T11:05:14;11.20;72.80
45785;DHT22;31489;51.404;5.474;2022-11-27T11:08:00;11.30;72.50
45785;DHT22;31489;51.404;5.474;2022-11-27T11:10:30;11.30;72.60
45785;DHT22;31489;51.404;5.474;2022-11-27T11:13:27;11.30;72.50
45785;DHT22;31489;51.404;5.474;2022-11-27T11:15:58;11.30;72.80
45785;DHT22;31489;51.404;5.474;2022-11-27T11:18:33;11.40;72.70
45785;DHT22;31489;51.404;5.474;2022-11-27T11:21:01;11.40;72.60
45785;DHT22;31489;51.404;5.474;2022-11-27T11:23:36;11.40;72.50
45785;DHT22;31489;51.404;5.474;2022-11-27T11:26:23;11.40;72.70
45785;DHT22;31489;51.404;5.474;2022-11-27T11:28:55;11.40;72.60
45785;DHT22;31489;51.404;5.474;2022-11-27T11:31:31;11.50;72.50
45785;DHT22;31489;51.404;5.474;2022-11-27T11:34:04;11.50;72.40
45785;DHT22;31489;51.404;5.474;2022-11-27T11:36:32;11.50;72.50
45785;DHT22;31489;51.404;5.474;2022-11-27T11:38:58;11.50;72.60
45785;DHT22;31489;51.404;5.474;2022-11-27T11:41:23;11.50;72.40
45785;DHT22;31489;51.404;5.474;2022-11-27T11:44:00;11.50;72.60
45785;DHT22;31489;51.404;5.474;2022-11-27T11:46:30;11.60;72.70
45785;DHT22;31489;51.404;5.474;2022-11-27T11:49:14;11.60;72.50
45785;DHT22;31489;51.404;5.474;2022-11-27T11:57:23;11.70;73.00
45785;DHT22;31489;51.404;5.474;2022-11-27T12:00:03;11.70;72.90
45785;DHT22;31489;51.404;5.474;2022-11-27T12:02:32;11.70;72.80
45785;DHT22;31489;51.404;5.474;2022-11-27T12:10:32;11.80;72.70
45785;DHT22;31489;51.404;5.474;2022-11-27T12:15:32;11.80;72.80
45785;DHT22;31489;51.404;5.474;2022-11-27T12:18:03;11.80;72.90
45785;DHT22;31489;51.404;5.474;2022-11-27T12:23:23;11.80;72.90
45785;DHT22;31489;51.404;5.474;2022-11-27T12:29:02;11.90;72.80
45785;DHT22;31489;51.404;5.474;2022-11-27T12:31:55;11.90;72.70
45785;DHT22;31489;51.404;5.474;2022-11-27T12:42:17;11.90;72.20
45785;DHT22;31489;51.404;5.474;2022-11-27T12:44:59;12.00;72.30
45785;DHT22;31489;51.404;5.474;2022-11-27T12:47:41;11.90;72.10
45785;DHT22;31489;51.404;5.474;2022-11-27T12:50:35;11.90;72.20
45785;DHT22;31489;51.404;5.474;2022-11-27T12:53:17;11.90;72.30
45785;DHT22;31489;51.404;5.474;2022-11-27T12:55:55;12.00;72.20
45785;DHT22;31489;51.404;5.474;2022-11-27T12:58:34;12.00;72.00
45785;DHT22;31489;51.404;5.474;2022-11-27T13:01:23;12.00;71.70
45785;DHT22;31489;51.404;5.474;2022-11-27T13:04:17;12.00;72.00
45785;DHT22;31489;51.404;5.474;2022-11-27T13:07:05;11.90;71.90
45785;DHT22;31489;51.404;5.474;2022-11-27T13:09:46;11.90;71.80
45785;DHT22;31489;51.404;5.474;2022-11-27T13:20:40;11.90;72.00
45785;DHT22;31489;51.404;5.474;2022-11-27T13:23:07;12.00;71.80
45785;DHT22;31489;51.404;5.474;2022-11-27T13:25:40;12.00;71.70
45785;DHT22;31489;51.404;5.474;2022-11-27T13:28:07;12.00;71.80
45785;DHT22;31489;51.404;5.474;2022-11-27T13:30:41;12.00;72.00
45785;DHT22;31489;51.404;5.474;2022-11-27T13:33:31;12.00;71.90
45785;DHT22;31489;51.404;5.474;2022-11-27T13:36:00;12.00;72.10
45785;DHT22;31489;51.404;5.474;2022-11-27T13:38:28;12.10;72.00
45785;DHT22;31489;51.404;5.474;2022-11-27T13:40:55;12.10;72.20
45785;DHT22;31489;51.404;5.474;2022-11-27T13:46:04;12.10;72.30
45785;DHT22;31489;51.404;5.474;2022-11-27T13:48:31;12.20;72.20
45785;DHT22;31489;51.404;5.474;2022-11-27T13:50:58;12.10;72.10
45785;DHT22;31489;51.404;5.474;2022-11-27T13:53:39;12.20;71.90
45785;DHT22;31489;51.404;5.474;2022-11-27T13:56:06;12.20;72.30
45785;DHT22;31489;51.404;5.474;2022-11-27T14:01:18;12.20;72.00
45785;DHT22;31489;51.404;5.474;2022-11-27T14:03:45;12.20;72.10
45785;DHT22;31489;51.404;5.474;2022-11-27T14:06:29;12.20;71.80
45785;DHT22;31489;51.404;5.474;2022-11-27T14:08:58;12.30;72.30
45785;DHT22;31489;51.404;5.474;2022-11-27T14:11:41;12.20;72.00
45785;DHT22;31489;51.404;5.474;2022-11-27T14:14:27;12.30;72.30
45785;DHT22;31489;51.404;5.474;2022-11-27T14:16:59;12.30;72.10
45785;DHT22;31489;51.404;5.474;2022-11-27T14:19:32;12.30;72.00
45785;DHT22;31489;51.404;5.474;2022-11-27T14:22:00;12.20;72.00
45785;DHT22;31489;51.404;5.474;2022-11-27T14:24:36;12.20;72.10
45785;DHT22;31489;51.404;5.474;2022-11-27T14:27:25;12.20;72.10
45785;DHT22;31489;51.404;5.474;2022-11-27T14:29:52;12.20;72.10
45785;DHT22;31489;51.404;5.474;2022-11-27T14:32:19;12.20;72.10
45785;DHT22;31489;51.404;5.474;2022-11-27T14:34:45;12.20;72.10
45785;DHT22;31489;51.404;5.474;2022-11-27T14:37:26;12.20;72.10
45785;DHT22;31489;51.404;5.474;2022-11-27T14:39:53;12.20;72.30
45785;DHT22;31489;51.404;5.474;2022-11-27T14:42:24;12.20;72.00
45785;DHT22;31489;51.404;5.474;2022-11-27T14:45:01;12.20;72.00
45785;DHT22;31489;51.404;5.474;2022-11-27T14:47:26;12.20;72.20
45785;DHT22;31489;51.404;5.474;2022-11-27T14:49:54;12.20;72.10
45785;DHT22;31489;51.404;5.474;2022-11-27T14:52:20;12.20;72.20
45785;DHT22;31489;51.404;5.474;2022-11-27T14:54:47;12.10;72.10
45785;DHT22;31489;51.404;5.474;2022-11-27T14:57:15;12.10;72.20
45785;DHT22;31489;51.404;5.474;2022-11-27T14:59:42;12.10;72.10
45785;DHT22;31489;51.404;5.474;2022-11-27T15:04:43;12.10;72.10
45785;DHT22;31489;51.404;5.474;2022-11-27T15:07:17;12.10;72.30
45785;DHT22;31489;51.404;5.474;2022-11-27T15:09:50;12.10;72.30
45785;DHT22;31489;51.404;5.474;2022-11-27T15:12:35;12.10;72.30
45785;DHT22;31489;51.404;5.474;2022-11-27T15:15:18;12.00;72.30
45785;DHT22;31489;51.404;5.474;2022-11-27T15:17:49;12.00;72.20
45785;DHT22;31489;51.404;5.474;2022-11-27T15:20:25;12.00;72.10
45785;DHT22;31489;51.404;5.474;2022-11-27T15:22:56;12.00;72.10
45785;DHT22;31489;51.404;5.474;2022-11-27T15:25:35;12.00;72.20
45785;DHT22;31489;51.404;5.474;2022-11-27T15:28:02;12.00;72.30
45785;DHT22;31489;51.404;5.474;2022-11-27T15:30:44;12.00;72.20
45785;DHT22;31489;51.404;5.474;2022-11-27T15:33:32;11.90;72.30
45785;DHT22;31489;51.404;5.474;2022-11-27T15:36:17;11.90;72.50
45785;DHT22;31489;51.404;5.474;2022-11-27T15:38:44;11.90;72.50
45785;DHT22;31489;51.404;5.474;2022-11-27T15:41:24;11.90;72.20
45785;DHT22;31489;51.404;5.474;2022-11-27T15:43:50;11.90;72.30
45785;DHT22;31489;51.404;5.474;2022-11-27T15:46:27;11.90;72.10
45785;DHT22;31489;51.404;5.474;2022-11-27T15:48:55;11.90;72.20
45785;DHT22;31489;51.404;5.474;2022-11-27T15:51:20;11.90;72.20
45785;DHT22;31489;51.404;5.474;2022-11-27T15:53:46;11.90;72.20
45785;DHT22;31489;51.404;5.474;2022-11-27T15:56:13;11.90;72.10
45785;DHT22;31489;51.404;5.474;2022-11-27T15:58:39;11.80;72.10
45785;DHT22;31489;51.404;5.474;2022-11-27T16:01:06;11.80;72.20
45785;DHT22;31489;51.404;5.474;2022-11-27T16:03:32;11.80;72.20
45785;DHT22;31489;51.404;5.474;2022-11-27T16:06:02;11.80;72.20
45785;DHT22;31489;51.404;5.474;2022-11-27T16:08:28;11.80;72.30
45785;DHT22;31489;51.404;5.474;2022-11-27T16:10:59;11.80;72.00
45785;DHT22;31489;51.404;5.474;2022-11-27T16:13:25;11.80;71.90
45785;DHT22;31489;51.404;5.474;2022-11-27T16:15:50;11.80;71.80
45785;DHT22;31489;51.404;5.474;2022-11-27T16:18:16;11.80;71.90
45785;DHT22;31489;51.404;5.474;2022-11-27T16:20:42;11.80;72.00
45785;DHT22;31489;51.404;5.474;2022-11-27T16:23:07;11.80;71.80
45785;DHT22;31489;51.404;5.474;2022-11-27T16:25:33;11.80;71.90
45785;DHT22;31489;51.404;5.474;2022-11-27T16:27:58;11.80;71.70
45785;DHT22;31489;51.404;5.474;2022-11-27T16:30:24;11.70;71.70
45785;DHT22;31489;51.404;5.474;2022-11-27T16:32:50;11.80;71.80
45785;DHT22;31489;51.404;5.474;2022-11-27T16:35:15;11.80;71.60
45785;DHT22;31489;51.404;5.474;2022-11-27T16:37:43;11.80;71.50
45785;DHT22;31489;51.404;5.474;2022-11-27T16:40:09;11.80;71.50
45785;DHT22;31489;51.404;5.474;2022-11-27T16:42:35;11.80;71.50
45785;DHT22;31489;51.404;5.474;2022-11-27T16:45:01;11.80;71.60
45785;DHT22;31489;51.404;5.474;2022-11-27T16:47:29;11.70;71.60
45785;DHT22;31489;51.404;5.474;2022-11-27T16:49:54;11.80;71.60
45785;DHT22;31489;51.404;5.474;2022-11-27T16:52:20;11.80;71.60
45785;DHT22;31489;51.404;5.474;2022-11-27T16:54:45;11.80;71.60
45785;DHT22;31489;51.404;5.474;2022-11-27T16:57:11;11.80;71.50
45785;DHT22;31489;51.404;5.474;2022-11-27T16:59:37;11.80;71.30
45785;DHT22;31489;51.404;5.474;2022-11-27T17:02:03;11.80;71.50
45785;DHT22;31489;51.404;5.474;2022-11-27T17:04:29;11.80;71.50
45785;DHT22;31489;51.404;5.474;2022-11-27T17:06:54;11.80;71.60
45785;DHT22;31489;51.404;5.474;2022-11-27T17:09:21;11.80;71.60
45785;DHT22;31489;51.404;5.474;2022-11-27T17:11:49;11.80;71.40
45785;DHT22;31489;51.404;5.474;2022-11-27T17:14:16;11.80;71.40
45785;DHT22;31489;51.404;5.474;2022-11-27T17:16:42;11.80;71.50
45785;DHT22;31489;51.404;5.474;2022-11-27T17:19:11;11.80;71.50